Time;durP1;ratioP1;P1;durP2;ratioP2;P2;SDS_P1;SDS_P2;PMS_P1;PMS_P2;Temp;Humidity;BMP_temperature;BMP_pressure;BME280_temperature;BME280_humidity;BME280_pressure;Samples;Min_cycle;Max_cycle;Signal;HPM_P1;HPM_P2
2023/08/06 00:00:39;;;;;;;;;17.40;15.00;;;;;24.19;100.00;97250.00;6285775;27;97109;-62
2023/08/06 00:03:44;;;;;;;;;21.40;19.40;;;;;24.20;100.00;97234.31;6286240;27;96961;-62
2023/08/06 00:06:47;;;;;;;;;21.00;19.80;;;;;24.21;100.00;97249.69;6263979;27;96426;-62
2023/08/06 00:09:51;;;;;;;;;20.40;18.40;;;;;24.24;100.00;97273.78;6290480;27;96484;-62
2023/08/06 00:12:54;;;;;;;;;22.00;19.00;;;;;24.27;100.00;97279.38;6270817;27;96275;-62
2023/08/06 00:16:09;;;;;;;;;21.60;19.00;;;;;24.29;100.00;97251.50;6262048;27;96737;-62
2023/08/06 00:19:14;;;;;;;;;25.00;21.60;;;;;24.25;100.00;97221.09;6271782;27;96415;-62
2023/08/06 00:22:17;;;;;;;;;23.00;20.00;;;;;24.20;100.00;97223.28;6289704;27;97417;-62
2023/08/06 00:25:20;;;;;;;;;24.40;22.40;;;;;24.15;100.00;97254.59;6271522;27;97218;-63
2023/08/06 00:28:23;;;;;;;;;25.40;20.00;;;;;24.12;100.00;97244.28;6289400;27;96411;-63
2023/08/06 00:31:27;;;;;;;;;26.40;23.00;;;;;24.15;100.00;97247.13;6273133;27;97117;-63
2023/08/06 00:34:31;;;;;;;;;24.20;21.00;;;;;24.13;100.00;97251.41;6289168;27;96574;-63
2023/08/06 00:37:34;;;;;;;;;23.50;21.00;;;;;24.08;100.00;97251.66;6262934;27;96349;-62
2023/08/06 00:40:37;;;;;;;;;23.00;22.00;;;;;24.00;100.00;97272.66;6270651;27;96911;-63
2023/08/06 00:43:41;;;;;;;;;25.20;20.80;;;;;24.03;100.00;97307.75;6288994;27;96299;-63
2023/08/06 00:46:44;;;;;;;;;25.00;22.00;;;;;24.05;100.00;97277.09;6270158;27;97138;-63
2023/08/06 00:49:49;;;;;;;;;24.60;22.00;;;;;24.07;100.00;97336.19;6270679;27;97067;-62
2023/08/06 00:52:53;;;;;;;;;29.00;24.60;;;;;24.07;100.00;97292.13;6253618;27;99641;-62
2023/08/06 00:55:57;;;;;;;;;22.60;20.60;;;;;24.11;100.00;97195.88;6288229;27;96977;-62
2023/08/06 00:59:00;;;;;;;;;22.00;20.00;;;;;24.09;100.00;97141.16;6289210;27;96830;-62
2023/08/06 01:02:03;;;;;;;;;21.20;17.20;;;;;24.10;100.00;97227.31;6253805;27;96549;-63
2023/08/06 01:05:08;;;;;;;;;20.00;18.00;;;;;23.95;100.00;97283.91;6252242;27;96744;-63
2023/08/06 01:08:26;;;;;;;;;19.80;17.00;;;;;23.85;100.00;97322.91;6279173;27;96586;-62
2023/08/06 01:11:39;;;;;;;;;21.33;18.33;;;;;23.64;100.00;97353.31;6272868;27;96603;-63
2023/08/06 01:14:51;;;;;;;;;24.00;20.00;;;;;23.45;100.00;97363.28;6253578;27;97743;-62
2023/08/06 01:17:54;;;;;;;;;24.00;21.00;;;;;23.62;100.00;97354.78;6288266;27;96821;-63
2023/08/06 01:20:59;;;;;;;;;24.00;21.25;;;;;23.72;100.00;97324.88;6288675;27;96479;-63
2023/08/06 01:24:02;;;;;;;;;28.75;26.00;;;;;23.79;100.00;97522.44;6288999;27;96381;-62
2023/08/06 01:27:12;;;;;;;;;28.25;25.00;;;;;23.76;100.00;97523.09;6286633;27;96615;-62
2023/08/06 01:30:18;;;;;;;;;32.00;28.00;;;;;23.82;100.00;97527.25;6293715;27;96317;-63
2023/08/06 01:33:23;;;;;;;;;27.00;22.25;;;;;23.77;100.00;97504.66;6289141;27;96242;-63
2023/08/06 01:36:29;;;;;;;;;24.20;20.60;;;;;23.80;100.00;97510.25;6252822;27;96657;-63
2023/08/06 01:39:35;;;;;;;;;26.75;23.00;;;;;23.89;100.00;97511.00;6250897;27;99415;-63
2023/08/06 01:42:40;;;;;;;;;21.00;19.75;;;;;23.93;100.00;97511.09;6288348;27;96337;-62
2023/08/06 01:45:43;;;;;;;;;22.00;19.00;;;;;23.99;100.00;97513.31;6262422;27;96615;-62
2023/08/06 01:48:46;;;;;;;;;22.00;19.40;;;;;23.98;100.00;97497.94;6266519;27;97384;-62
2023/08/06 01:51:51;;;;;;;;;26.00;19.50;;;;;24.07;100.00;97508.81;6273067;27;96890;-63
2023/08/06 01:54:54;;;;;;;;;23.00;19.40;;;;;24.05;100.00;97500.91;6285953;27;96432;-63
2023/08/06 01:57:58;;;;;;;;;19.00;17.00;;;;;24.04;100.00;97501.25;6287365;27;96325;-63
2023/08/06 02:01:02;;;;;;;;;18.00;17.00;;;;;24.06;100.00;97499.75;6251846;27;98673;-63
2023/08/06 02:04:05;;;;;;;;;21.00;19.00;;;;;24.12;100.00;97494.84;6288170;27;96537;-62
2023/08/06 02:07:10;;;;;;;;;19.60;18.60;;;;;24.15;100.00;97500.44;6267265;27;97185;-62
2023/08/06 02:10:13;;;;;;;;;21.00;15.00;;;;;24.22;100.00;97491.66;6260482;27;96807;-63
2023/08/06 02:13:16;;;;;;;;;16.60;14.00;;;;;24.26;100.00;97491.75;6286588;27;98765;-63
2023/08/06 02:16:20;;;;;;;;;19.20;16.00;;;;;24.30;100.00;97496.25;6270853;27;96362;-63
2023/08/06 02:19:23;;;;;;;;;18.75;16.00;;;;;24.33;100.00;97490.06;6267680;27;98497;-62
2023/08/06 02:22:28;;;;;;;;;18.00;16.00;;;;;24.40;100.00;97490.28;6286308;27;96784;-63
2023/08/06 02:25:31;;;;;;;;;19.40;15.80;;;;;24.38;100.00;97489.81;6253039;27;96885;-62
2023/08/06 02:28:35;;;;;;;;;17.60;16.00;;;;;24.41;100.00;97486.38;6286855;27;96481;-62
2023/08/06 02:31:38;;;;;;;;;15.00;14.50;;;;;24.43;100.00;97503.38;6265676;27;96700;-63
2023/08/06 02:34:41;;;;;;;;;16.00;15.00;;;;;24.44;100.00;97509.66;6287515;27;96678;-63
2023/08/06 02:37:46;;;;;;;;;15.20;13.20;;;;;24.44;100.00;97513.22;6244019;27;98477;-62
2023/08/06 02:40:49;;;;;;;;;16.60;15.60;;;;;24.46;100.00;97519.19;6269028;27;96274;-62
2023/08/06 02:43:53;;;;;;;;;17.00;15.00;;;;;24.47;100.00;97512.53;6243512;27;96705;-63
2023/08/06 02:46:57;;;;;;;;;14.75;14.00;;;;;24.49;100.00;97503.91;6266328;27;96849;-63
2023/08/06 02:50:00;;;;;;;;;18.75;17.50;;;;;24.54;100.00;97498.97;6286688;27;96576;-63
2023/08/06 02:53:06;;;;;;;;;21.00;16.00;;;;;24.56;100.00;97515.16;6268625;27;96901;-62
2023/08/06 02:56:09;;;;;;;;;16.40;15.00;;;;;24.57;100.00;97514.03;6263100;27;96724;-63
2023/08/06 02:59:33;;;;;;;;;20.00;17.00;;;;;24.55;100.00;97513.56;6280884;27;96300;-62
2023/08/06 03:02:57;;;;;;;;;16.00;15.00;;;;;24.56;100.00;97523.44;6286022;27;96347;-62
2023/08/06 03:06:23;;;;;;;;;17.00;16.00;;;;;24.54;100.00;97520.22;6285079;27;97091;-63
2023/08/06 03:09:30;;;;;;;;;18.40;14.40;;;;;24.53;100.00;97521.38;6269381;27;96432;-63
2023/08/06 03:12:34;;;;;;;;;20.60;19.00;;;;;24.54;100.00;97528.47;6260834;27;96340;-63
2023/08/06 03:15:39;;;;;;;;;18.00;15.00;;;;;24.54;100.00;97522.97;6260442;27;96391;-63
2023/08/06 03:18:45;;;;;;;;;18.40;14.60;;;;;24.56;100.00;97523.44;6268741;27;96620;-62
2023/08/06 03:21:48;;;;;;;;;18.40;16.00;;;;;24.57;100.00;97520.34;6256564;27;96610;-62
2023/08/06 03:24:53;;;;;;;;;16.40;14.80;;;;;24.58;100.00;97510.91;6263724;27;96511;-63
2023/08/06 03:28:00;;;;;;;;;15.80;15.00;;;;;24.57;100.00;97498.31;6260040;27;96648;-63
2023/08/06 03:31:04;;;;;;;;;16.00;14.00;;;;;24.58;100.00;97494.38;6267636;27;96701;-62
2023/08/06 03:34:15;;;;;;;;;16.20;14.20;;;;;24.62;100.00;97500.00;6233025;27;96738;-63
2023/08/06 03:37:18;;;;;;;;;14.50;12.00;;;;;24.60;100.00;97494.03;6284175;27;96456;-63
2023/08/06 03:40:23;;;;;;;;;16.00;14.00;;;;;24.58;100.00;97496.34;6270677;27;96452;-62
2023/08/06 03:43:27;;;;;;;;;16.00;15.00;;;;;24.59;100.00;97489.66;6270592;27;96872;-63
2023/08/06 03:46:32;;;;;;;;;17.00;14.40;;;;;24.54;100.00;97482.44;6247663;27;99700;-63
2023/08/06 03:49:36;;;;;;;;;14.50;12.00;;;;;24.56;100.00;97479.34;6264559;27;96583;-62
2023/08/06 03:52:40;;;;;;;;;14.00;13.00;;;;;24.58;100.00;97482.56;6289272;27;96499;-63
2023/08/06 03:55:45;;;;;;;;;14.60;13.60;;;;;24.55;100.00;97469.47;6261257;27;98658;-62
2023/08/06 03:58:48;;;;;;;;;16.00;12.00;;;;;24.53;100.00;97466.28;6283597;27;96423;-62
2023/08/06 04:01:51;;;;;;;;;16.00;13.00;;;;;24.57;100.00;97462.47;6259985;27;97557;-62
2023/08/06 04:04:55;;;;;;;;;18.40;15.00;;;;;24.58;100.00;97450.28;6282564;27;96601;-63
2023/08/06 04:07:59;;;;;;;;;18.20;16.60;;;;;24.62;100.00;97450.41;6246792;27;96783;-63
2023/08/06 04:11:04;;;;;;;;;17.67;17.00;;;;;24.59;100.00;97451.09;6287030;27;96805;-63
2023/08/06 04:14:07;;;;;;;;;17.00;16.00;;;;;24.57;100.00;97450.66;6290293;27;96353;-63
2023/08/06 04:17:10;;;;;;;;;17.00;15.40;;;;;24.57;100.00;97461.69;6271665;27;97219;-62
2023/08/06 04:20:14;;;;;;;;;14.00;14.00;;;;;24.56;100.00;97454.56;6270823;27;96571;-63
2023/08/06 04:23:18;;;;;;;;;16.00;14.00;;;;;24.58;100.00;97452.28;6269864;27;97008;-62
2023/08/06 04:26:23;;;;;;;;;17.00;16.00;;;;;24.53;100.00;97433.22;6250290;27;96806;-63
2023/08/06 04:29:26;;;;;;;;;16.60;14.00;;;;;24.61;100.00;97462.59;6286609;27;97858;-64
2023/08/06 04:32:31;;;;;;;;;16.00;13.00;;;;;24.63;100.00;97453.97;6286536;27;96379;-62
2023/08/06 04:35:34;;;;;;;;;16.00;14.00;;;;;24.65;100.00;97449.72;6260356;27;96686;-62
2023/08/06 04:38:38;;;;;;;;;14.00;12.00;;;;;24.65;100.00;97449.72;6269318;27;96620;-63
2023/08/06 04:41:43;;;;;;;;;14.00;12.00;;;;;24.66;100.00;97451.31;6253964;27;96810;-63
2023/08/06 04:44:46;;;;;;;;;11.25;10.25;;;;;24.64;100.00;97445.34;6270975;27;96548;-63
2023/08/06 04:47:50;;;;;;;;;16.50;13.25;;;;;24.66;100.00;97442.25;6245118;27;96976;-62
2023/08/06 04:50:54;;;;;;;;;11.40;10.60;;;;;24.67;100.00;97443.88;6270071;27;97992;-63
2023/08/06 04:53:58;;;;;;;;;14.00;13.00;;;;;24.63;100.00;97448.47;6260382;27;97422;-63
2023/08/06 04:57:02;;;;;;;;;13.75;12.00;;;;;24.66;100.00;97442.25;6288711;27;96621;-63
2023/08/06 05:00:07;;;;;;;;;14.00;13.00;;;;;24.66;100.00;97437.53;6262435;27;96502;-63
2023/08/06 05:03:10;;;;;;;;;12.60;11.60;;;;;24.67;100.00;97438.34;6278814;27;98493;-62
2023/08/06 05:06:13;;;;;;;;;13.60;12.00;;;;;24.67;100.00;97438.34;6288257;27;96953;-63
2023/08/06 05:09:16;;;;;;;;;14.80;12.00;;;;;24.69;100.00;97441.53;6287182;27;97603;-63
2023/08/06 05:12:21;;;;;;;;;13.00;12.00;;;;;24.69;100.00;97416.75;6269176;27;97384;-62
2023/08/06 05:15:25;;;;;;;;;14.00;12.00;;;;;24.70;100.00;97407.31;6288808;27;96421;-63
2023/08/06 05:18:30;;;;;;;;;15.40;14.00;;;;;24.74;100.00;97416.50;6251983;27;96825;-63
2023/08/06 05:21:33;;;;;;;;;13.00;13.00;;;;;24.76;100.00;97415.00;6266342;27;97509;-62
2023/08/06 05:24:37;;;;;;;;;10.60;9.60;;;;;24.79;100.00;97403.28;6263115;27;98513;-62
2023/08/06 05:27:41;;;;;;;;;12.40;10.60;;;;;24.83;100.00;97403.38;6288749;27;97019;-63
2023/08/06 05:30:44;;;;;;;;;12.60;11.00;;;;;24.91;100.00;97392.25;6289563;27;97790;-63
2023/08/06 05:33:47;;;;;;;;;11.40;10.00;;;;;24.93;100.00;97400.94;6276475;27;96382;-62
2023/08/06 05:36:52;;;;;;;;;9.00;9.00;;;;;24.96;100.00;97392.00;6265692;27;96352;-62
2023/08/06 05:39:55;;;;;;;;;9.00;9.00;;;;;24.96;100.00;97386.47;6262779;27;97152;-62
2023/08/06 05:43:00;;;;;;;;;11.40;10.40;;;;;24.98;100.00;97384.16;6264415;27;96761;-62
2023/08/06 05:46:04;;;;;;;;;10.50;10.00;;;;;24.97;100.00;97376.25;6262788;27;98588;-64
2023/08/06 05:49:07;;;;;;;;;10.00;9.00;;;;;25.01;100.00;97375.19;6274697;27;96354;-64
2023/08/06 05:52:11;;;;;;;;;10.00;9.00;;;;;25.02;100.00;97368.50;6273380;27;96972;-63
2023/08/06 05:55:14;;;;;;;;;10.00;9.00;;;;;25.07;100.00;97372.97;6273526;27;96927;-63
2023/08/06 05:58:19;;;;;;;;;11.60;10.60;;;;;25.07;100.00;97367.44;6287660;27;96564;-63
2023/08/06 06:01:23;;;;;;;;;11.40;10.00;;;;;25.09;100.00;97367.09;6243924;27;96841;-63
2023/08/06 06:04:26;;;;;;;;;11.80;10.00;;;;;25.10;100.00;97363.19;6267042;27;98402;-63
2023/08/06 06:07:29;;;;;;;;;9.50;9.00;;;;;25.10;100.00;97357.69;6262051;27;96348;-63
2023/08/06 06:10:33;;;;;;;;;13.00;11.00;;;;;25.05;100.00;97344.16;6263108;27;98511;-63
2023/08/06 06:13:37;;;;;;;;;13.50;11.50;;;;;25.08;100.00;97344.25;6248203;27;98637;-63
2023/08/06 06:16:40;;;;;;;;;9.75;9.75;;;;;25.08;100.00;97343.44;6248692;27;96098;-63
2023/08/06 06:19:43;;;;;;;;;13.60;11.00;;;;;25.09;100.00;97337.56;6268499;27;96719;-63
2023/08/06 06:22:47;;;;;;;;;12.00;9.00;;;;;25.06;100.00;97334.72;6285991;27;96599;-63
2023/08/06 06:25:51;;;;;;;;;9.33;9.00;;;;;25.01;100.00;97324.78;6285847;27;96797;-62
2023/08/06 06:28:56;;;;;;;;;10.25;10.00;;;;;24.96;100.00;97325.81;6278927;27;96965;-63
2023/08/06 06:31:59;;;;;;;;;8.40;8.00;;;;;24.94;100.00;97322.63;6271719;27;96395;-63
2023/08/06 06:35:02;;;;;;;;;11.40;11.00;;;;;24.92;100.00;97316.63;6283162;27;97579;-62
2023/08/06 06:38:05;;;;;;;;;8.00;8.00;;;;;24.91;100.00;97323.34;6287303;27;96663;-63
2023/08/06 06:41:09;;;;;;;;;8.60;7.00;;;;;24.89;100.00;97305.53;6267279;27;99165;-62
2023/08/06 06:44:15;;;;;;;;;11.20;10.20;;;;;24.90;100.00;97323.66;6266110;27;96510;-63
2023/08/06 06:47:19;;;;;;;;;10.00;9.00;;;;;24.85;100.00;97329.41;6267099;27;97024;-63
2023/08/06 06:50:23;;;;;;;;;10.00;10.00;;;;;24.85;100.00;97321.94;6286559;27;96640;-64
2023/08/06 06:53:28;;;;;;;;;10.50;9.50;;;;;24.87;100.00;97316.94;6287070;27;96403;-63
2023/08/06 06:56:31;;;;;;;;;10.40;9.20;;;;;24.81;100.00;97304.50;6264859;27;99114;-63
2023/08/06 06:59:35;;;;;;;;;12.00;11.00;;;;;24.85;100.00;97308.16;6285497;27;96362;-63
2023/08/06 07:02:39;;;;;;;;;9.25;8.75;;;;;24.84;100.00;97301.03;6270880;27;96965;-63
2023/08/06 07:05:43;;;;;;;;;11.00;10.00;;;;;24.90;100.00;97301.63;6243112;27;97891;-63
2023/08/06 07:08:46;;;;;;;;;11.60;10.60;;;;;24.89;100.00;97305.53;6267276;27;96750;-63
2023/08/06 07:11:49;;;;;;;;;8.20;8.00;;;;;24.83;100.00;97313.22;6268105;27;96493;-63
2023/08/06 07:14:55;;;;;;;;;10.00;9.00;;;;;24.81;100.00;97318.28;6281943;27;97114;-63
2023/08/06 07:17:58;;;;;;;;;9.00;9.00;;;;;24.75;100.00;97308.66;6286014;27;98698;-63
2023/08/06 07:21:01;;;;;;;;;9.40;8.00;;;;;24.72;100.00;97301.13;6285527;27;96646;-63
2023/08/06 07:24:04;;;;;;;;;9.00;8.33;;;;;24.70;100.00;97313.63;6290309;27;97644;-63
2023/08/06 07:27:08;;;;;;;;;8.00;7.00;;;;;24.68;100.00;97315.97;6286177;27;96958;-64
2023/08/06 07:30:12;;;;;;;;;8.00;6.00;;;;;24.72;100.00;97317.66;6290391;27;96375;-64
2023/08/06 07:33:16;;;;;;;;;8.60;8.40;;;;;24.68;100.00;97329.75;6263444;27;98148;-63
2023/08/06 07:36:19;;;;;;;;;7.75;6.75;;;;;24.53;100.00;97359.59;6289801;27;96566;-63
2023/08/06 07:39:23;;;;;;;;;7.00;5.00;;;;;24.29;100.00;97364.41;6290236;27;96694;-63
2023/08/06 07:42:26;;;;;;;;;1.00;1.00;;;;;24.00;100.00;97368.19;6252693;27;97291;-63
2023/08/06 07:45:35;;;;;;;;;1.00;1.00;;;;;23.88;100.00;97349.75;6270969;27;97432;-62
2023/08/06 07:48:38;;;;;;;;;2.00;2.00;;;;;23.69;100.00;97349.53;6286365;27;96350;-62
2023/08/06 07:51:42;;;;;;;;;1.00;1.00;;;;;23.47;100.00;97330.72;6260223;27;96804;-63
2023/08/06 07:54:45;;;;;;;;;2.00;2.00;;;;;23.32;100.00;97334.91;6282321;27;96308;-63
2023/08/06 07:57:48;;;;;;;;;1.00;1.00;;;;;23.28;100.00;97326.53;6289692;27;96858;-62
2023/08/06 08:00:53;;;;;;;;;2.00;2.00;;;;;23.22;100.00;97325.16;6285642;27;96595;-63
2023/08/06 08:03:56;;;;;;;;;1.00;1.00;;;;;23.17;100.00;97321.81;6281118;27;96749;-62
2023/08/06 08:06:59;;;;;;;;;0.25;0.25;;;;;23.14;100.00;97315.06;6285684;27;96993;-62
2023/08/06 08:10:03;;;;;;;;;0.00;0.00;;;;;22.88;100.00;97312.59;6263431;27;97384;-62
2023/08/06 08:13:07;;;;;;;;;1.00;1.00;;;;;22.94;100.00;97313.19;6290445;27;96443;-63
2023/08/06 08:16:11;;;;;;;;;0.00;0.00;;;;;22.95;100.00;97311.25;6254660;27;99566;-62
2023/08/06 08:19:14;;;;;;;;;0.00;0.00;;;;;22.76;100.00;97317.28;6271532;27;96501;-62
2023/08/06 08:22:17;;;;;;;;;1.00;1.00;;;;;22.49;100.00;97315.88;6253639;27;96734;-63
2023/08/06 08:25:21;;;;;;;;;0.00;0.00;;;;;22.40;100.00;97328.88;6272427;27;96517;-62
2023/08/06 08:28:24;;;;;;;;;0.00;0.00;;;;;22.34;100.00;97339.25;6289867;27;96544;-62
2023/08/06 08:31:29;;;;;;;;;1.00;1.00;;;;;22.17;100.00;97322.94;6269135;27;96888;-64
2023/08/06 08:34:32;;;;;;;;;1.00;1.00;;;;;22.15;100.00;97324.41;6284501;27;96642;-63
2023/08/06 08:37:36;;;;;;;;;2.00;1.00;;;;;21.99;100.00;97322.25;6282722;27;97263;-63
2023/08/06 08:40:46;;;;;;;;;0.00;0.00;;;;;22.03;100.00;97327.88;6287230;27;96352;-63
2023/08/06 08:43:51;;;;;;;;;1.00;1.00;;;;;21.92;100.00;97330.19;6270534;27;96885;-62
2023/08/06 08:46:56;;;;;;;;;1.60;1.60;;;;;21.85;100.00;97329.91;6271565;27;96974;-62
2023/08/06 08:50:01;;;;;;;;;1.00;1.00;;;;;21.76;100.00;97328.34;6270484;27;97636;-62
2023/08/06 08:53:06;;;;;;;;;1.00;1.00;;;;;21.75;100.00;97321.25;6288306;27;97754;-63
2023/08/06 08:56:10;;;;;;;;;0.00;0.00;;;;;21.86;100.00;97327.94;6271456;27;96708;-62
2023/08/06 08:59:16;;;;;;;;;0.00;0.00;;;;;21.83;100.00;97334.13;6287496;27;96188;-62
2023/08/06 09:02:22;;;;;;;;;1.00;1.00;;;;;21.92;100.00;97310.16;6290323;27;96295;-62
2023/08/06 09:05:30;;;;;;;;;1.00;1.00;;;;;21.99;100.00;97308.53;6290778;27;96729;-63
2023/08/06 09:08:38;;;;;;;;;0.00;0.00;;;;;21.95;100.00;97302.09;6290242;27;96289;-63
2023/08/06 09:11:45;;;;;;;;;0.00;0.00;;;;;21.98;100.00;97306.13;6290348;27;96507;-63
2023/08/06 09:14:48;;;;;;;;;0.75;0.75;;;;;22.17;100.00;97308.41;6266079;27;96745;-63
2023/08/06 09:17:52;;;;;;;;;2.00;1.00;;;;;22.20;100.00;97303.03;6263246;27;96581;-62
2023/08/06 09:20:56;;;;;;;;;0.00;0.00;;;;;22.26;100.00;97274.25;6285733;27;96277;-62
2023/08/06 09:24:00;;;;;;;;;2.60;2.00;;;;;22.37;100.00;97285.63;6289892;27;96508;-63
2023/08/06 09:27:04;;;;;;;;;1.00;0.20;;;;;22.24;100.00;97290.25;6268323;27;96364;-62
2023/08/06 09:30:08;;;;;;;;;0.00;0.00;;;;;22.34;100.00;97305.50;6289391;27;96545;-63
2023/08/06 09:33:18;;;;;;;;;1.00;1.00;;;;;22.31;100.00;97309.75;6281522;27;96356;-62
2023/08/06 09:36:24;;;;;;;;;1.00;1.00;;;;;22.20;100.00;97292.06;6276857;27;96336;-63
2023/08/06 09:39:31;;;;;;;;;1.00;1.00;;;;;22.02;100.00;97312.56;6280891;27;96501;-62
2023/08/06 09:42:38;;;;;;;;;1.00;1.00;;;;;21.89;100.00;97297.91;6255393;27;97712;-62
2023/08/06 09:45:43;;;;;;;;;1.80;1.00;;;;;21.79;100.00;97298.31;6286130;27;96913;-62
2023/08/06 09:48:48;;;;;;;;;1.00;1.00;;;;;21.77;100.00;97302.53;6248729;27;98435;-62
2023/08/06 09:51:55;;;;;;;;;1.00;1.00;;;;;21.74;100.00;97301.25;6280361;27;97976;-62
2023/08/06 09:55:00;;;;;;;;;1.00;1.00;;;;;21.69;100.00;97308.88;6283633;27;96282;-63
2023/08/06 09:58:05;;;;;;;;;1.00;1.00;;;;;21.73;100.00;97324.34;6287586;27;96794;-62
2023/08/06 10:01:09;;;;;;;;;1.00;1.00;;;;;21.67;100.00;97303.72;6266088;27;97523;-62
2023/08/06 10:04:16;;;;;;;;;1.00;1.00;;;;;21.53;100.00;97331.38;6269982;27;96500;-63
2023/08/06 10:07:27;;;;;;;;;0.00;0.00;;;;;21.49;100.00;97329.63;6286273;27;97022;-62
2023/08/06 10:10:31;;;;;;;;;1.00;1.00;;;;;21.40;100.00;97328.88;6287907;27;96739;-62
2023/08/06 10:13:36;;;;;;;;;0.25;0.25;;;;;21.41;100.00;97341.41;6244423;27;98549;-62
2023/08/06 10:16:41;;;;;;;;;1.00;1.00;;;;;21.38;100.00;97342.09;6269501;27;96334;-62
2023/08/06 10:19:47;;;;;;;;;1.00;1.00;;;;;21.36;100.00;97319.66;6270119;27;98558;-62
2023/08/06 10:23:02;;;;;;;;;1.00;1.00;;;;;21.41;100.00;97319.47;6268351;27;97234;-62
2023/08/06 10:26:06;;;;;;;;;1.20;1.20;;;;;21.39;100.00;97330.81;6269939;27;97021;-62
2023/08/06 10:29:36;;;;;;;;;1.00;1.00;;;;;21.38;100.00;97320.16;6264446;27;97154;-62
2023/08/06 10:32:49;;;;;;;;;1.00;1.00;;;;;21.35;100.00;97327.13;6261812;27;98683;-62
2023/08/06 10:36:04;;;;;;;;;1.00;1.00;;;;;21.38;100.00;97323.72;6286723;27;96442;-62
2023/08/06 10:39:14;;;;;;;;;1.00;1.00;;;;;21.43;100.00;97334.50;6285497;27;96354;-62
2023/08/06 10:42:32;;;;;;;;;0.00;0.00;;;;;21.41;100.00;97338.69;6287568;27;96398;-62
2023/08/06 10:45:37;;;;;;;;;1.00;1.00;;;;;21.46;100.00;97344.78;6278352;27;96865;-62
2023/08/06 10:48:42;;;;;;;;;1.00;1.00;;;;;21.35;100.00;97329.06;6281039;27;96830;-62
2023/08/06 10:51:47;;;;;;;;;1.00;1.00;;;;;21.31;100.00;97319.84;6286306;27;97025;-62
2023/08/06 10:54:50;;;;;;;;;1.00;1.00;;;;;21.36;100.00;97328.69;6278658;27;96902;-62
2023/08/06 10:57:54;;;;;;;;;2.00;2.00;;;;;21.39;100.00;97328.06;6254642;27;96727;-62
2023/08/06 11:01:00;;;;;;;;;0.80;0.80;;;;;21.57;100.00;97326.03;6263708;27;96769;-62
2023/08/06 11:04:05;;;;;;;;;1.00;1.00;;;;;21.51;100.00;97322.66;6277868;27;97809;-62
2023/08/06 11:07:10;;;;;;;;;0.00;0.00;;;;;21.56;100.00;97314.25;6264412;27;97587;-62
2023/08/06 11:10:14;;;;;;;;;1.00;1.00;;;;;21.48;100.00;97317.03;6287911;27;96370;-62
2023/08/06 11:13:18;;;;;;;;;1.00;1.00;;;;;21.48;100.00;97312.38;6287454;27;96454;-62
2023/08/06 11:16:24;;;;;;;;;1.00;1.00;;;;;21.45;100.00;97320.47;6287032;27;96663;-62
2023/08/06 11:19:27;;;;;;;;;1.00;1.00;;;;;21.52;100.00;97321.53;6281228;27;96293;-62
2023/08/06 11:22:32;;;;;;;;;0.00;0.00;;;;;21.48;100.00;97338.97;6285208;27;96628;-62
2023/08/06 11:25:37;;;;;;;;;1.00;1.00;;;;;21.35;100.00;97334.53;6266360;27;96374;-63
2023/08/06 11:28:41;;;;;;;;;1.00;1.00;;;;;21.25;100.00;97349.41;6265731;27;97422;-62
2023/08/06 11:31:44;;;;;;;;;0.00;0.00;;;;;21.30;100.00;97341.00;6285991;27;96346;-62
2023/08/06 11:34:47;;;;;;;;;1.00;1.00;;;;;21.18;100.00;97357.31;6277070;27;96289;-62
2023/08/06 11:37:52;;;;;;;;;1.50;1.50;;;;;21.22;100.00;97347.31;6286745;27;97000;-62
2023/08/06 11:40:56;;;;;;;;;2.00;2.00;;;;;21.27;100.00;97344.38;6285334;27;96588;-62
2023/08/06 11:43:59;;;;;;;;;2.00;2.00;;;;;21.23;100.00;97345.38;6264637;27;96683;-62
2023/08/06 11:47:05;;;;;;;;;0.40;0.40;;;;;21.14;100.00;97351.69;6247181;27;96740;-62
2023/08/06 11:50:09;;;;;;;;;1.40;1.40;;;;;21.18;100.00;97360.88;6281818;27;96497;-63
2023/08/06 11:53:15;;;;;;;;;2.00;2.00;;;;;21.10;100.00;97358.94;6281460;27;96441;-63
2023/08/06 11:56:18;;;;;;;;;1.00;1.00;;;;;21.15;100.00;97371.69;6282451;27;97368;-63
2023/08/06 11:59:22;;;;;;;;;0.25;0.00;;;;;20.82;100.00;97379.59;6260868;27;96493;-62
2023/08/06 12:02:28;;;;;;;;;1.60;1.60;;;;;20.58;100.00;97376.56;6285878;27;96550;-62
2023/08/06 12:05:33;;;;;;;;;1.00;1.00;;;;;20.47;100.00;97372.56;6279351;27;96879;-62
2023/08/06 12:08:38;;;;;;;;;2.00;2.00;;;;;20.44;100.00;97368.50;6269869;27;98366;-62
2023/08/06 12:11:41;;;;;;;;;1.00;1.00;;;;;20.41;100.00;97369.16;6260887;27;96711;-62
2023/08/06 12:14:44;;;;;;;;;1.00;1.00;;;;;20.23;100.00;97376.53;6282079;27;96728;-62
2023/08/06 12:17:47;;;;;;;;;2.00;2.00;;;;;20.21;100.00;97378.78;6270559;27;96337;-62
2023/08/06 12:20:51;;;;;;;;;1.00;1.00;;;;;20.21;100.00;97378.78;6276352;27;96529;-62
2023/08/06 12:23:55;;;;;;;;;1.80;1.80;;;;;20.23;100.00;97403.09;6277828;27;96468;-62
2023/08/06 12:26:58;;;;;;;;;2.00;2.00;;;;;20.28;100.00;97398.25;6275849;27;96380;-63
2023/08/06 12:30:03;;;;;;;;;2.00;2.00;;;;;20.15;100.00;97406.63;6278276;27;96972;-62
2023/08/06 12:33:07;;;;;;;;;1.00;1.00;;;;;20.15;100.00;97409.34;6283864;27;96773;-63
2023/08/06 12:36:10;;;;;;;;;2.00;2.00;;;;;20.11;100.00;97408.38;6290169;27;96610;-62
2023/08/06 12:39:14;;;;;;;;;1.00;1.00;;;;;20.19;100.00;97394.69;6271374;27;99433;-62
2023/08/06 12:42:18;;;;;;;;;2.00;2.00;;;;;20.15;100.00;97390.19;6263892;27;96110;-62
2023/08/06 12:45:21;;;;;;;;;1.80;1.80;;;;;20.22;100.00;97398.75;6269959;27;98607;-62
2023/08/06 12:48:25;;;;;;;;;2.00;2.00;;;;;20.36;100.00;97395.88;6269786;27;98611;-62
2023/08/06 12:51:28;;;;;;;;;1.60;1.60;;;;;20.29;100.00;97404.53;6256508;27;97816;-63
2023/08/06 12:54:36;;;;;;;;;1.00;1.00;;;;;20.38;100.00;97418.28;6282286;27;98147;-63
2023/08/06 12:57:39;;;;;;;;;1.00;1.00;;;;;20.31;100.00;97424.22;6278576;27;97080;-62
2023/08/06 13:00:59;;;;;;;;;0.00;0.00;;;;;20.41;100.00;97429.38;6282279;27;97104;-62
2023/08/06 13:04:03;;;;;;;;;1.00;1.00;;;;;20.24;100.00;97432.06;6288195;27;96277;-63
2023/08/06 13:07:28;;;;;;;;;1.00;1.00;;;;;19.85;100.00;97419.25;6283480;27;96299;-62
2023/08/06 13:10:32;;;;;;;;;0.00;0.00;;;;;20.01;100.00;97455.19;6286890;27;96964;-61
2023/08/06 13:13:36;;;;;;;;;1.00;1.00;;;;;19.89;100.00;97453.03;6285407;27;96540;-62
2023/08/06 13:16:42;;;;;;;;;1.00;1.00;;;;;19.81;100.00;97456.56;6284059;27;96217;-63
2023/08/06 13:19:45;;;;;;;;;1.40;1.40;;;;;19.93;100.00;97469.66;6255611;27;96651;-62
2023/08/06 13:22:50;;;;;;;;;0.00;0.00;;;;;19.92;100.00;97465.28;6284385;27;96520;-62
2023/08/06 13:25:55;;;;;;;;;2.00;1.00;;;;;19.82;100.00;97467.19;6265791;27;96296;-63
2023/08/06 13:28:59;;;;;;;;;1.00;1.00;;;;;19.99;100.00;97471.91;6259810;27;96884;-62
2023/08/06 13:32:02;;;;;;;;;2.00;2.00;;;;;20.07;100.00;97478.53;6261595;27;98537;-62
2023/08/06 13:35:06;;;;;;;;;1.00;1.00;;;;;20.18;100.00;97479.88;6281718;27;96311;-62
2023/08/06 13:38:09;;;;;;;;;2.00;2.00;;;;;20.20;100.00;97486.63;6280963;27;97158;-62
2023/08/06 13:41:14;;;;;;;;;1.00;1.00;;;;;20.29;100.00;97497.59;6273696;27;96340;-62
2023/08/06 13:44:18;;;;;;;;;2.00;2.00;;;;;20.38;100.00;97487.50;6266593;27;97254;-62
2023/08/06 13:47:21;;;;;;;;;1.00;1.00;;;;;20.41;100.00;97494.28;6284339;27;98505;-62
2023/08/06 13:50:26;;;;;;;;;1.00;1.00;;;;;20.35;100.00;97496.34;6242269;27;96719;-62
2023/08/06 13:53:32;;;;;;;;;1.40;1.40;;;;;20.42;100.00;97474.81;6268541;27;97398;-62
2023/08/06 13:56:37;;;;;;;;;1.00;1.00;;;;;20.41;100.00;97462.25;6268813;27;96834;-63
2023/08/06 13:59:40;;;;;;;;;1.20;1.20;;;;;20.57;100.00;97457.91;6250653;27;98567;-62
2023/08/06 14:02:44;;;;;;;;;0.00;0.00;;;;;20.60;100.00;97460.00;6269421;27;97124;-62
2023/08/06 14:05:48;;;;;;;;;0.00;0.00;;;;;20.74;100.00;97479.81;6276434;27;97775;-62
2023/08/06 14:08:51;;;;;;;;;1.00;1.00;;;;;20.69;100.00;97490.13;6266097;27;97039;-62